Time;durP1;ratioP1;P1;durP2;ratioP2;P2;SDS_P1;SDS_P2;PMS_P1;PMS_P2;Temp;Humidity;BMP_temperature;BMP_pressure;BME280_temperature;BME280_humidity;BME280_pressure;Samples;Min_cycle;Max_cycle;Signal;HPM_P1;HPM_P2
2023/10/05 00:01:02;;;;;;;;;3.00;3.00;;;;;26.74;41.04;102486.41;4938735;28;45391;-83
2023/10/05 00:03:30;;;;;;;;;3.00;3.00;;;;;26.84;41.19;102488.03;4938884;28;45332;-83
2023/10/05 00:06:04;;;;;;;;;4.00;2.67;;;;;26.90;41.05;102497.22;4947217;28;45449;-82
2023/10/05 00:08:34;;;;;;;;;2.67;2.00;;;;;26.70;41.30;102463.72;4957758;28;45556;-83
2023/10/05 00:11:00;;;;;;;;;3.00;3.00;;;;;26.89;41.08;102504.38;4957855;28;46545;-82
2023/10/05 00:13:26;;;;;;;;;1.67;1.67;;;;;26.89;41.33;102506.22;4957912;28;45333;-83
2023/10/05 00:15:51;;;;;;;;;2.67;2.67;;;;;26.89;41.40;102507.06;4957205;28;45340;-82
2023/10/05 00:18:20;;;;;;;;;4.67;1.67;;;;;26.81;40.87;102502.56;4958083;28;45385;-81
2023/10/05 00:20:48;;;;;;;;;2.00;2.00;;;;;26.65;41.52;102479.44;4957846;28;46471;-83
2023/10/05 00:23:14;;;;;;;;;3.00;3.00;;;;;26.70;41.09;102485.09;4957665;28;45345;-83
2023/10/05 00:25:39;;;;;;;;;2.00;2.00;;;;;26.72;40.86;102493.78;4957955;28;45295;-83
2023/10/05 00:28:09;;;;;;;;;3.00;3.00;;;;;26.81;41.11;102505.25;4957891;28;45565;-83
2023/10/05 00:30:35;;;;;;;;;3.33;1.67;;;;;26.69;41.03;102485.28;4957200;28;46934;-83
2023/10/05 00:33:00;;;;;;;;;2.33;2.33;;;;;26.85;41.40;102511.09;4957613;28;45425;-84
2023/10/05 00:35:27;;;;;;;;;3.67;2.67;;;;;26.63;41.50;102476.09;4957879;28;45354;-83
2023/10/05 00:37:55;;;;;;;;;2.67;2.00;;;;;26.70;40.81;102492.28;4957628;28;45520;-83
2023/10/05 00:40:42;;;;;;;;;3.00;3.00;;;;;26.80;41.44;102508.94;4957294;28;47497;-83
2023/10/05 00:43:31;;;;;;;;;3.00;3.00;;;;;26.77;40.84;102503.09;4953814;28;45303;-83
2023/10/05 00:45:57;;;;;;;;;2.00;2.00;;;;;26.66;41.12;102496.28;4937908;28;45367;-83
2023/10/05 00:48:34;;;;;;;;;2.00;2.00;;;;;26.84;40.98;102520.94;4936853;28;45448;-83
2023/10/05 00:51:00;;;;;;;;;2.67;2.67;;;;;26.71;40.77;102504.63;4938016;28;46437;-83
2023/10/05 00:53:28;;;;;;;;;3.67;3.67;;;;;26.83;40.80;102519.25;4938169;28;45335;-83
2023/10/05 00:56:07;;;;;;;;;1.67;1.67;;;;;26.84;40.84;102520.94;4938289;28;45407;-83
2023/10/05 00:58:48;;;;;;;;;3.00;3.00;;;;;26.66;41.28;102483.78;4937645;28;45368;-83
2023/10/05 01:01:24;;;;;;;;;4.00;2.33;;;;;26.70;40.69;102476.28;4937701;28;47352;-83
2023/10/05 01:09:11;;;;;;;;;4.00;4.00;;;;;26.80;41.09;102497.41;4957251;28;45417;-83
2023/10/05 01:11:44;;;;;;;;;3.00;3.00;;;;;26.80;40.86;102494.75;4956848;28;46232;-83
2023/10/05 01:14:15;;;;;;;;;4.00;2.75;;;;;26.84;40.97;102490.72;4957090;28;45369;-83
2023/10/05 01:16:43;;;;;;;;;2.67;2.00;;;;;26.68;41.23;102472.91;4957284;28;45274;-83
2023/10/05 01:19:09;;;;;;;;;1.33;1.33;;;;;26.80;40.78;102478.72;4957420;28;45545;-82
2023/10/05 01:21:34;;;;;;;;;2.00;1.67;;;;;26.83;41.62;102479.19;4957137;28;45909;-82
2023/10/05 01:24:00;;;;;;;;;1.00;1.00;;;;;26.73;41.55;102468.72;4957319;28;45424;-84
2023/10/05 01:26:25;;;;;;;;;2.00;2.00;;;;;26.67;41.24;102456.09;4957368;28;45490;-82
2023/10/05 01:28:51;;;;;;;;;1.00;1.00;;;;;26.82;41.38;102476.72;4956804;28;45779;-83
2023/10/05 01:31:21;;;;;;;;;3.33;2.67;;;;;26.68;41.41;102447.06;4956846;28;46508;-83
2023/10/05 01:33:46;;;;;;;;;3.00;3.00;;;;;26.81;40.99;102470.53;4940431;28;45378;-83
2023/10/05 01:36:15;;;;;;;;;2.00;2.00;;;;;26.60;41.73;102436.41;4957037;28;45425;-83
2023/10/05 01:38:41;;;;;;;;;2.67;2.67;;;;;26.72;41.50;102458.22;4958377;28;45277;-83
2023/10/05 01:41:09;;;;;;;;;2.33;2.33;;;;;26.81;41.02;102477.69;4960452;28;45531;-82
2023/10/05 01:43:35;;;;;;;;;1.33;1.00;;;;;26.72;41.41;102466.25;4952836;28;45236;-83
2023/10/05 01:46:02;;;;;;;;;2.67;2.67;;;;;26.81;41.50;102472.38;4940883;28;45330;-82
2023/10/05 01:48:30;;;;;;;;;3.00;1.33;;;;;26.66;41.48;102456.25;4940837;28;45387;-83
2023/10/05 01:51:06;;;;;;;;;1.00;1.00;;;;;26.80;41.01;102468.88;4940651;28;46125;-84
2023/10/05 01:53:32;;;;;;;;;3.00;2.67;;;;;26.79;41.01;102477.06;4941078;28;45386;-84
2023/10/05 01:55:59;;;;;;;;;2.33;2.33;;;;;26.65;40.94;102458.06;4940571;28;45359;-83
2023/10/05 01:58:34;;;;;;;;;1.67;1.67;;;;;26.69;41.14;102455.91;4941022;28;45394;-83
2023/10/05 02:00:59;;;;;;;;;2.67;2.67;;;;;26.73;40.92;102457.22;4940486;28;47168;-83
2023/10/05 02:03:25;;;;;;;;;3.00;3.00;;;;;26.80;41.03;102462.72;4940604;28;45482;-83
2023/10/05 02:05:56;;;;;;;;;4.00;2.00;;;;;26.80;41.20;102458.22;4948434;28;45529;-82
2023/10/05 02:08:22;;;;;;;;;2.00;2.00;;;;;26.74;41.18;102449.03;4960040;28;45369;-83
2023/10/05 02:10:48;;;;;;;;;3.33;2.00;;;;;26.68;40.88;102436.38;4959180;28;51762;-83
2023/10/05 02:13:13;;;;;;;;;1.67;1.67;;;;;26.61;40.95;102425.56;4959832;28;45509;-83
2023/10/05 02:15:42;;;;;;;;;2.00;1.67;;;;;26.66;41.09;102437.56;4959697;28;45473;-83
2023/10/05 02:18:26;;;;;;;;;1.00;1.00;;;;;26.76;41.12;102448.88;4959996;28;45309;-82
2023/10/05 02:23:34;;;;;;;;;1.67;1.33;;;;;26.80;41.40;102460.03;4959599;28;45447;-84
2023/10/05 02:26:10;;;;;;;;;4.33;4.33;;;;;26.57;41.38;102437.59;4959602;28;45349;-83
2023/10/05 02:28:41;;;;;;;;;3.00;1.33;;;;;26.65;40.94;102443.91;4959664;28;45345;-82
2023/10/05 02:31:13;;;;;;;;;2.00;2.00;;;;;26.72;41.27;102456.41;4959507;28;46356;-83
2023/10/05 02:33:40;;;;;;;;;2.67;2.00;;;;;26.79;40.80;102461.03;4959352;28;45433;-83
2023/10/05 02:36:17;;;;;;;;;3.33;1.67;;;;;26.77;41.37;102455.88;4959584;28;45338;-83
2023/10/05 02:38:49;;;;;;;;;2.00;2.00;;;;;26.78;41.32;102456.72;4959274;28;45435;-82
2023/10/05 02:41:17;;;;;;;;;0.67;0.67;;;;;26.39;41.60;102400.41;4958671;28;47064;-82
2023/10/05 02:43:51;;;;;;;;;3.33;2.00;;;;;26.69;41.48;102431.88;4951005;28;45343;-81
2023/10/05 02:46:17;;;;;;;;;1.67;1.67;;;;;26.45;40.93;102398.94;4940485;28;45432;-82
2023/10/05 02:48:43;;;;;;;;;1.67;1.33;;;;;26.77;41.09;102449.69;4940533;28;45258;-82
2023/10/05 02:51:10;;;;;;;;;0.00;0.00;;;;;26.73;40.98;102436.69;4938742;28;47065;-82
2023/10/05 02:53:42;;;;;;;;;1.67;0.67;;;;;26.68;40.84;102431.03;4939776;28;45224;-82
2023/10/05 02:56:27;;;;;;;;;2.67;2.67;;;;;26.74;40.88;102443.72;4938099;28;45438;-83
2023/10/05 02:58:54;;;;;;;;;2.67;2.67;;;;;26.76;41.10;102450.69;4939635;28;45398;-82
2023/10/05 03:01:21;;;;;;;;;3.00;3.00;;;;;26.76;40.84;102467.56;4939440;28;46215;-83
2023/10/05 03:03:47;;;;;;;;;2.00;2.00;;;;;26.75;40.58;102465.91;4939772;28;45374;-83
2023/10/05 03:06:15;;;;;;;;;4.00;2.00;;;;;26.72;40.92;102461.75;4950490;28;45976;-83
2023/10/05 03:08:41;;;;;;;;;2.33;2.00;;;;;26.59;41.40;102443.59;4958824;28;45355;-82
2023/10/05 03:11:08;;;;;;;;;3.67;2.67;;;;;26.76;40.89;102470.22;4958883;28;45263;-83
2023/10/05 03:13:40;;;;;;;;;2.00;2.00;;;;;26.77;40.74;102463.03;4958908;28;45347;-83
2023/10/05 03:16:10;;;;;;;;;2.00;2.00;;;;;26.60;41.24;102437.25;4958856;28;45368;-82
2023/10/05 03:18:42;;;;;;;;;2.00;2.00;;;;;26.77;40.95;102457.72;4958818;28;45299;-83
2023/10/05 03:21:12;;;;;;;;;1.67;1.67;;;;;26.76;41.33;102454.19;4958745;28;47004;-84
2023/10/05 03:23:40;;;;;;;;;2.67;1.33;;;;;26.73;40.75;102457.22;4958311;28;45449;-84
2023/10/05 03:26:07;;;;;;;;;3.67;2.33;;;;;26.72;41.17;102455.56;4958709;28;45462;-83
2023/10/05 03:28:35;;;;;;;;;1.00;1.00;;;;;26.61;41.00;102441.59;4958446;28;45380;-82
2023/10/05 03:31:07;;;;;;;;;4.00;1.67;;;;;26.76;40.74;102454.19;4958430;28;46316;-83
2023/10/05 03:33:34;;;;;;;;;2.00;2.00;;;;;26.59;40.90;102432.94;4958562;28;45473;-83
2023/10/05 03:36:06;;;;;;;;;2.33;2.33;;;;;26.66;41.36;102441.06;4958998;28;45316;-82
2023/10/05 03:38:31;;;;;;;;;0.67;0.67;;;;;26.67;41.29;102449.91;4958652;28;45406;-83
2023/10/05 03:41:01;;;;;;;;;0.67;0.67;;;;;26.75;41.27;102457.91;4958252;28;46482;-82
2023/10/05 03:43:27;;;;;;;;;2.00;1.00;;;;;26.60;40.92;102434.56;4952516;28;45441;-82
2023/10/05 03:45:52;;;;;;;;;3.00;3.00;;;;;26.46;40.90;102409.47;4939210;28;45388;-82
2023/10/05 03:48:18;;;;;;;;;1.00;1.00;;;;;26.66;41.29;102442.91;4939327;28;45587;-82
2023/10/05 03:50:43;;;;;;;;;2.33;2.33;;;;;26.72;40.88;102464.41;4938836;28;53804;-83
2023/10/05 03:53:15;;;;;;;;;2.00;2.00;;;;;26.67;41.25;102453.41;4938361;28;45434;-83
2023/10/05 03:55:41;;;;;;;;;1.00;1.00;;;;;26.59;41.28;102442.78;4939185;28;45292;-83
2023/10/05 03:58:07;;;;;;;;;1.33;1.33;;;;;26.56;41.21;102432.44;4939233;28;45229;-82
2023/10/05 04:00:35;;;;;;;;;2.00;2.00;;;;;26.68;41.22;102447.06;4938515;28;46258;-83
2023/10/05 04:03:02;;;;;;;;;4.00;2.00;;;;;26.71;40.77;102456.56;4938384;28;45390;-82
2023/10/05 04:05:27;;;;;;;;;1.67;1.33;;;;;26.63;41.32;102444.06;4943742;28;45488;-82
2023/10/05 04:07:55;;;;;;;;;1.00;1.00;;;;;26.71;41.21;102451.22;4958148;28;45601;-82
2023/10/05 04:10:23;;;;;;;;;1.67;1.67;;;;;26.50;40.87;102420.59;4958023;28;46189;-83
2023/10/05 04:12:51;;;;;;;;;2.00;2.00;;;;;26.62;41.11;102447.78;4957824;28;45430;-83
2023/10/05 04:15:18;;;;;;;;;3.00;2.00;;;;;26.70;40.65;102454.91;4957867;28;45408;-83
2023/10/05 04:17:49;;;;;;;;;0.67;0.67;;;;;26.63;40.48;102438.72;4957751;28;45243;-82
2023/10/05 04:20:21;;;;;;;;;1.67;0.67;;;;;26.61;41.29;102446.94;4957812;28;46248;-82
2023/10/05 04:22:49;;;;;;;;;0.67;0.67;;;;;26.69;41.21;102461.25;4957915;28;45390;-83
2023/10/05 04:25:16;;;;;;;;;2.00;1.00;;;;;26.62;41.21;102453.91;4958146;28;45479;-82
2023/10/05 04:27:48;;;;;;;;;1.67;1.67;;;;;26.62;40.45;102456.59;4957816;28;45462;-82
2023/10/05 04:30:18;;;;;;;;;2.67;2.67;;;;;26.73;40.90;102466.06;4957621;28;47578;-82
2023/10/05 04:32:43;;;;;;;;;2.33;2.33;;;;;26.73;41.29;102467.88;4940299;28;45932;-83
2023/10/05 04:35:20;;;;;;;;;1.00;1.00;;;;;26.54;41.35;102450.47;4957591;28;45852;-82
2023/10/05 04:37:47;;;;;;;;;1.00;1.00;;;;;26.60;41.43;102450.59;4957522;28;45235;-82
2023/10/05 04:40:15;;;;;;;;;1.33;0.67;;;;;26.55;40.64;102438.75;4957569;28;46338;-82
2023/10/05 04:42:41;;;;;;;;;1.00;1.00;;;;;26.67;40.85;102455.25;4957284;28;45486;-82
2023/10/05 04:45:12;;;;;;;;;3.00;3.00;;;;;26.67;41.20;102450.75;4938308;28;45534;-82
2023/10/05 04:47:37;;;;;;;;;2.33;2.00;;;;;26.44;40.63;102415.97;4937277;28;45489;-81
2023/10/05 04:50:05;;;;;;;;;1.33;1.33;;;;;26.62;41.18;102445.09;4937572;28;47034;-82
2023/10/05 04:52:33;;;;;;;;;1.67;1.67;;;;;26.54;40.80;102424.59;4938376;28;45470;-82
2023/10/05 04:55:14;;;;;;;;;0.67;0.67;;;;;26.63;40.77;102449.41;4938441;28;45275;-83
2023/10/05 04:57:49;;;;;;;;;1.67;1.67;;;;;26.61;41.35;102441.59;4937941;28;45434;-82
2023/10/05 05:03:16;;;;;;;;;3.33;2.00;;;;;26.65;40.79;102449.25;4937887;28;45366;-82
2023/10/05 05:06:27;;;;;;;;;1.00;1.00;;;;;26.69;41.25;102458.56;4943956;28;45232;-82
2023/10/05 05:08:28;;;;;;;;;0.67;0.67;;;;;26.68;41.21;102476.44;4953266;28;45478;-81
2023/10/05 05:10:53;;;;;;;;;1.33;1.33;;;;;26.69;40.88;102470.09;4955525;28;47171;-82
2023/10/05 05:13:22;;;;;;;;;1.67;0.67;;;;;26.68;41.38;102464.91;4956227;28;45346;-81
2023/10/05 05:15:47;;;;;;;;;1.67;1.67;;;;;26.43;41.38;102432.94;4957169;28;45331;-82
2023/10/05 05:18:15;;;;;;;;;2.67;1.67;;;;;26.64;40.84;102459.09;4956889;28;45429;-82
2023/10/05 05:20:47;;;;;;;;;0.67;0.67;;;;;26.48;40.57;102433.28;4956422;28;46497;-82
2023/10/05 05:23:16;;;;;;;;;1.67;1.67;;;;;26.57;40.76;102445.59;4956955;28;45363;-83
2023/10/05 05:25:44;;;;;;;;;2.00;1.00;;;;;26.54;40.78;102461.97;4956989;28;45462;-82
2023/10/05 05:28:09;;;;;;;;;1.67;1.67;;;;;26.70;41.08;102478.94;4956977;28;45428;-81
2023/10/05 05:30:39;;;;;;;;;3.33;2.00;;;;;26.70;41.17;102458.38;4956726;28;45659;-82
2023/10/05 05:33:10;;;;;;;;;1.67;1.67;;;;;26.67;41.16;102429.41;4956721;28;45362;-79
2023/10/05 05:35:36;;;;;;;;;5.00;2.00;;;;;26.63;40.37;102428.06;4956556;28;45352;-80
2023/10/05 05:38:02;;;;;;;;;2.67;2.67;;;;;26.54;38.27;102451.31;4956664;28;45413;-79
2023/10/05 05:40:29;;;;;;;;;3.33;3.00;;;;;26.23;37.36;102465.34;4956388;28;46288;-76
2023/10/05 05:42:56;;;;;;;;;4.00;4.00;;;;;25.84;37.71;102462.41;4954940;28;45550;-75
2023/10/05 05:45:22;;;;;;;;;3.67;2.67;;;;;25.55;37.05;102466.34;4939199;28;45212;-76
2023/10/05 05:47:47;;;;;;;;;6.00;4.00;;;;;25.26;37.30;102487.94;4953224;28;45279;-77
2023/10/05 05:50:23;;;;;;;;;5.67;4.33;;;;;24.92;37.61;102449.69;4955044;28;46522;-81
2023/10/05 05:52:49;;;;;;;;;3.00;3.00;;;;;25.07;37.77;102473.91;4956191;28;45250;-80
2023/10/05 05:55:17;;;;;;;;;5.00;3.67;;;;;25.21;37.99;102478.78;4955750;28;45406;-80
2023/10/05 05:57:42;;;;;;;;;6.00;3.00;;;;;25.05;38.27;102430.63;4955516;28;45476;-80
2023/10/05 06:00:12;;;;;;;;;5.33;4.00;;;;;25.34;37.63;102475.63;4955119;28;46879;-77
2023/10/05 06:02:41;;;;;;;;;4.00;2.33;;;;;25.41;38.36;102484.63;4955624;28;45341;-77
2023/10/05 06:05:10;;;;;;;;;5.67;4.00;;;;;25.42;38.32;102470.34;4955696;28;46360;-77
2023/10/05 06:07:38;;;;;;;;;3.00;3.00;;;;;25.52;38.32;102487.00;4956293;28;45371;-78
2023/10/05 06:10:12;;;;;;;;;1.67;1.67;;;;;25.49;38.58;102475.81;4956061;28;47107;-80
2023/10/05 06:12:42;;;;;;;;;5.00;4.00;;;;;25.62;38.29;102494.84;4956428;28;45218;-80
2023/10/05 06:15:13;;;;;;;;;4.00;3.33;;;;;25.59;38.14;102471.19;4956258;28;45374;-83
2023/10/05 06:17:39;;;;;;;;;4.33;2.67;;;;;25.74;38.12;102489.19;4955969;28;45546;-79
2023/10/05 06:20:14;;;;;;;;;3.00;3.00;;;;;25.79;38.31;102489.53;4956408;28;46189;-78
2023/10/05 06:22:44;;;;;;;;;4.00;2.33;;;;;25.83;38.34;102485.56;4956206;28;45390;-80
2023/10/05 06:25:17;;;;;;;;;2.67;2.67;;;;;25.88;37.84;102486.88;4958265;28;46014;-81
2023/10/05 06:27:44;;;;;;;;;4.00;2.00;;;;;25.85;38.00;102478.22;4959503;28;45323;-82
2023/10/05 06:30:13;;;;;;;;;1.33;0.67;;;;;25.92;37.90;102482.88;4959252;28;46514;-82
2023/10/05 06:32:39;;;;;;;;;4.67;2.00;;;;;25.98;38.26;102486.72;4959028;28;45354;-83
2023/10/05 06:35:09;;;;;;;;;3.33;3.00;;;;;26.02;38.03;102488.06;4942221;28;45376;-82
2023/10/05 06:37:44;;;;;;;;;2.67;2.67;;;;;26.05;37.77;102483.19;4959726;28;45371;-81
2023/10/05 06:40:12;;;;;;;;;4.33;3.00;;;;;26.09;37.83;102496.19;4959431;28;46459;-81
2023/10/05 06:42:42;;;;;;;;;4.33;3.33;;;;;26.12;37.93;102496.72;4959065;28;45265;-82
2023/10/05 06:45:13;;;;;;;;;3.00;2.67;;;;;26.09;38.11;102502.38;4940148;28;45422;-82
2023/10/05 06:47:38;;;;;;;;;5.33;2.33;;;;;25.95;38.49;102483.38;4939674;28;45321;-83
2023/10/05 06:50:11;;;;;;;;;3.00;3.00;;;;;26.17;37.99;102521.06;4939667;28;45884;-83
2023/10/05 06:52:43;;;;;;;;;1.67;1.67;;;;;26.01;38.20;102491.72;4939932;28;45374;-83
2023/10/05 06:55:12;;;;;;;;;3.00;3.00;;;;;26.22;38.29;102527.72;4939722;28;45527;-83
2023/10/05 06:57:43;;;;;;;;;2.00;2.00;;;;;26.24;38.44;102523.03;4939933;28;45441;-82
2023/10/05 07:00:11;;;;;;;;;2.00;2.00;;;;;26.24;38.57;102518.53;4939661;28;47083;-82
2023/10/05 07:02:40;;;;;;;;;2.33;2.33;;;;;26.24;37.78;102525.69;4939217;28;45352;-82
2023/10/05 07:05:06;;;;;;;;;6.33;2.67;;;;;26.10;38.51;102504.03;4941546;28;45447;-81
2023/10/05 07:07:33;;;;;;;;;3.00;1.67;;;;;26.16;37.84;102506.03;4959060;28;45389;-81
2023/10/05 07:09:58;;;;;;;;;2.33;2.33;;;;;26.30;38.45;102509.03;4958608;28;46373;-82
2023/10/05 07:12:24;;;;;;;;;5.00;2.33;;;;;26.16;38.03;102479.34;4959040;28;45438;-83
2023/10/05 07:14:50;;;;;;;;;2.00;1.00;;;;;26.28;38.64;102497.69;4958866;28;45429;-82
2023/10/05 07:17:16;;;;;;;;;3.00;2.00;;;;;26.19;38.83;102488.84;4958521;28;45346;-82
2023/10/05 07:19:42;;;;;;;;;3.67;2.67;;;;;26.23;38.38;102497.38;4958713;28;46429;-83
2023/10/05 07:22:09;;;;;;;;;2.00;2.00;;;;;26.18;38.55;102501.34;4959078;28;45477;-84
2023/10/05 07:24:34;;;;;;;;;2.67;2.67;;;;;26.36;38.24;102534.19;4958992;28;45536;-82
2023/10/05 07:27:00;;;;;;;;;3.00;3.00;;;;;26.37;38.67;102538.53;4958768;28;45333;-82
2023/10/05 07:29:26;;;;;;;;;2.67;1.67;;;;;26.27;38.28;102514.69;4958050;28;47055;-81
2023/10/05 07:31:51;;;;;;;;;4.67;3.00;;;;;26.29;38.04;102502.00;4958422;28;45347;-82
2023/10/05 07:34:16;;;;;;;;;2.67;2.67;;;;;26.40;38.30;102548.88;4958902;28;45356;-82
2023/10/05 07:36:42;;;;;;;;;1.67;1.67;;;;;26.39;37.97;102529.34;4940420;28;45459;-81
2023/10/05 07:39:11;;;;;;;;;2.67;1.67;;;;;26.34;38.01;102517.50;4958547;28;45247;-81
2023/10/05 07:41:36;;;;;;;;;1.67;1.67;;;;;26.41;38.21;102554.03;4958549;28;45312;-82
2023/10/05 07:44:02;;;;;;;;;3.67;2.67;;;;;26.42;38.54;102560.19;4947398;28;45210;-81
2023/10/05 07:46:28;;;;;;;;;2.67;2.00;;;;;26.43;38.56;102564.53;4939569;28;45387;-82
2023/10/05 07:48:53;;;;;;;;;2.67;1.67;;;;;26.37;38.80;102543.84;4938738;28;46200;-83
2023/10/05 07:51:18;;;;;;;;;2.67;2.67;;;;;26.45;38.75;102559.06;4921578;28;45301;-83
2023/10/05 07:53:44;;;;;;;;;2.00;2.00;;;;;26.43;38.51;102561.88;4938970;28;45407;-82
2023/10/05 07:56:09;;;;;;;;;3.00;3.00;;;;;26.35;38.32;102541.38;4938771;28;46981;-81
2023/10/05 07:58:35;;;;;;;;;1.67;1.67;;;;;26.34;38.28;102542.34;4938414;28;45327;-82
2023/10/05 08:01:01;;;;;;;;;4.00;2.33;;;;;26.33;38.75;102559.38;4937322;28;45763;-81
2023/10/05 08:03:27;;;;;;;;;2.00;2.00;;;;;26.29;38.71;102560.72;4938967;28;45395;-82
2023/10/05 08:05:52;;;;;;;;;1.67;1.67;;;;;26.44;38.64;102578.75;4946811;28;45429;-82
2023/10/05 08:08:17;;;;;;;;;2.33;2.33;;;;;26.32;38.33;102554.19;4958301;28;45912;-81
2023/10/05 08:10:43;;;;;;;;;3.67;2.33;;;;;26.46;38.24;102571.41;4958036;28;45486;-81
2023/10/05 08:13:10;;;;;;;;;5.00;3.33;;;;;26.31;38.50;102541.88;4957683;28;45383;-81
2023/10/05 08:15:35;;;;;;;;;0.67;0.67;;;;;26.40;38.19;102560.38;4957545;28;45386;-82
2023/10/05 08:18:01;;;;;;;;;2.00;2.00;;;;;26.45;38.50;102578.56;4957870;28;46033;-82
2023/10/05 08:20:27;;;;;;;;;1.67;1.67;;;;;26.45;38.37;102569.72;4958342;28;45310;-82
2023/10/05 08:22:54;;;;;;;;;1.67;1.67;;;;;26.17;38.21;102525.53;4957894;28;45292;-83
2023/10/05 08:25:20;;;;;;;;;2.00;2.00;;;;;26.39;38.43;102579.22;4958242;28;45369;-82
2023/10/05 08:27:48;;;;;;;;;2.00;2.00;;;;;26.37;38.83;102576.72;4957282;28;46064;-81
2023/10/05 08:30:14;;;;;;;;;4.00;2.00;;;;;26.44;39.03;102578.75;4957814;28;45402;-80
2023/10/05 08:32:40;;;;;;;;;2.33;1.67;;;;;26.48;38.73;102588.09;4940704;28;45358;-81
2023/10/05 08:35:13;;;;;;;;;5.67;2.67;;;;;26.27;38.36;102547.53;4957642;28;45236;-82
2023/10/05 08:37:42;;;;;;;;;3.33;2.00;;;;;26.49;38.59;102595.91;4957608;28;47217;-81
2023/10/05 08:43:16;;;;;;;;;2.00;1.67;;;;;26.41;38.54;102583.38;4948158;28;45379;-81
2023/10/05 08:45:47;;;;;;;;;1.33;1.33;;;;;26.39;38.40;102564.03;4938037;28;45466;-81
2023/10/05 08:48:29;;;;;;;;;1.00;1.00;;;;;26.52;38.60;102582.22;4936972;28;46978;-81
2023/10/05 08:50:59;;;;;;;;;1.67;1.33;;;;;26.51;38.87;102585.09;4937999;28;45313;-82
2023/10/05 08:53:26;;;;;;;;;3.33;2.33;;;;;26.41;38.67;102578.03;4938108;28;45318;-82
2023/10/05 08:55:54;;;;;;;;;3.00;2.33;;;;;26.52;38.88;102602.75;4937875;28;45504;-81
2023/10/05 08:58:21;;;;;;;;;1.33;1.33;;;;;26.34;39.03;102585.06;4937254;28;46160;-82
2023/10/05 09:00:48;;;;;;;;;2.67;2.67;;;;;26.52;38.75;102613.41;4937899;28;45287;-82
2023/10/05 09:03:29;;;;;;;;;3.00;3.00;;;;;26.49;38.42;102592.44;4937996;28;45387;-82
2023/10/05 09:06:20;;;;;;;;;2.00;2.00;;;;;26.52;39.07;102600.91;4945114;28;45524;-81
2023/10/05 09:09:08;;;;;;;;;1.67;1.33;;;;;26.47;38.90;102589.91;4956834;28;46649;-81
2023/10/05 09:11:34;;;;;;;;;4.33;1.67;;;;;26.45;38.70;102580.41;4957352;28;45291;-80
2023/10/05 09:14:12;;;;;;;;;2.67;2.00;;;;;26.54;38.45;102594.59;4957310;28;45228;-80
2023/10/05 09:16:43;;;;;;;;;3.00;2.33;;;;;26.42;38.74;102581.53;4957098;28;46193;-81
2023/10/05 09:19:15;;;;;;;;;2.67;2.67;;;;;26.32;39.02;102560.38;4956884;28;45424;-81
2023/10/05 09:21:55;;;;;;;;;7.00;3.00;;;;;26.55;38.90;102594.41;4957227;28;45398;-81
2023/10/05 09:24:24;;;;;;;;;2.33;2.33;;;;;26.54;38.33;102587.41;4955848;28;45305;-81
2023/10/05 09:27:12;;;;;;;;;3.00;3.00;;;;;26.61;39.04;102592.91;4956534;28;45495;-81
2023/10/05 09:29:39;;;;;;;;;2.67;2.00;;;;;26.59;38.41;102578.91;4956941;28;46475;-81
2023/10/05 09:32:10;;;;;;;;;3.00;1.00;;;;;26.61;39.04;102595.56;4956934;28;45344;-81
2023/10/05 09:34:38;;;;;;;;;2.00;2.00;;;;;26.63;38.86;102596.22;4957106;28;45390;-81
2023/10/05 09:37:06;;;;;;;;;3.33;3.00;;;;;26.60;38.77;102597.41;4956547;28;45390;-81
2023/10/05 09:39:59;;;;;;;;;3.33;2.00;;;;;26.56;38.46;102588.09;4956578;28;47190;-81
2023/10/05 09:42:25;;;;;;;;;2.00;2.00;;;;;26.66;38.44;102608.41;4956393;28;45394;-81
2023/10/05 09:44:57;;;;;;;;;4.00;4.00;;;;;26.66;39.03;102611.91;4939558;28;45232;-82
2023/10/05 09:47:27;;;;;;;;;3.00;1.67;;;;;26.60;38.42;102601.91;4937233;28;45500;-81
2023/10/05 09:49:59;;;;;;;;;2.67;2.67;;;;;26.63;38.85;102613.09;4937340;28;46082;-82
2023/10/05 09:52:34;;;;;;;;;1.67;1.67;;;;;26.51;38.93;102590.41;4937135;28;46066;-82
2023/10/05 09:55:00;;;;;;;;;2.67;2.67;;;;;26.57;38.83;102597.72;4936942;28;45393;-82
2023/10/05 09:57:27;;;;;;;;;2.00;2.00;;;;;26.66;39.20;102609.25;4937486;28;45454;-82
2023/10/05 10:00:00;;;;;;;;;2.00;2.00;;;;;26.72;39.09;102608.59;4938475;28;46176;-82
2023/10/05 10:02:34;;;;;;;;;2.33;1.00;;;;;26.70;39.08;102601.75;4940556;28;45280;-82
2023/10/05 10:05:16;;;;;;;;;3.00;2.00;;;;;26.76;39.11;102605.56;4941722;28;45291;-82
2023/10/05 10:07:49;;;;;;;;;3.00;3.00;;;;;26.40;38.66;102555.03;4959970;28;45332;-81
2023/10/05 10:10:19;;;;;;;;;2.00;2.00;;;;;26.48;39.00;102564.91;4959179;28;46235;-81
2023/10/05 10:12:46;;;;;;;;;2.00;1.67;;;;;26.81;38.47;102616.56;4959811;28;45354;-81
2023/10/05 10:15:28;;;;;;;;;2.33;2.00;;;;;26.72;38.59;102613.91;4959518;28;45365;-82
2023/10/05 10:18:06;;;;;;;;;3.67;1.67;;;;;26.84;39.06;102626.91;4959686;28;45516;-82
2023/10/05 10:20:35;;;;;;;;;2.33;2.33;;;;;26.87;38.97;102620.38;4959806;28;47187;-82
2023/10/05 10:23:21;;;;;;;;;3.00;3.00;;;;;26.84;38.62;102616.22;4959794;28;45385;-82
2023/10/05 10:25:50;;;;;;;;;2.00;2.00;;;;;26.91;38.99;102629.72;4959848;28;45389;-81
2023/10/05 10:28:24;;;;;;;;;1.00;1.00;;;;;26.77;39.17;102601.88;4959782;28;45450;-82
2023/10/05 10:31:13;;;;;;;;;1.33;1.00;;;;;26.94;39.02;102610.69;4959488;28;46268;-82
2023/10/05 10:33:40;;;;;;;;;3.33;3.00;;;;;26.90;39.07;102601.34;4959576;28;45437;-83
2023/10/05 10:36:18;;;;;;;;;2.00;2.00;;;;;26.91;39.17;102586.97;4959751;28;45402;-82
2023/10/05 10:38:51;;;;;;;;;2.33;2.33;;;;;26.95;39.41;102588.31;4959169;28;45326;-81
2023/10/05 10:41:19;;;;;;;;;2.00;2.00;;;;;26.95;38.72;102582.97;4959248;28;46580;-82
2023/10/05 10:43:53;;;;;;;;;4.00;3.00;;;;;26.93;39.23;102590.34;4950797;28;45390;-82
2023/10/05 10:46:20;;;;;;;;;1.00;1.00;;;;;26.96;38.55;102596.16;4940291;28;45318;-82
2023/10/05 10:48:59;;;;;;;;;4.00;3.00;;;;;26.93;38.84;102598.34;4940143;28;45217;-82
2023/10/05 10:51:33;;;;;;;;;1.00;1.00;;;;;26.98;39.18;102593.31;4939796;28;45462;-83
2023/10/05 10:54:14;;;;;;;;;1.00;1.00;;;;;27.00;39.02;102587.81;4939686;28;45372;-83
2023/10/05 10:56:43;;;;;;;;;1.67;1.67;;;;;26.93;39.12;102571.66;4939672;28;45306;-81
2023/10/05 10:59:13;;;;;;;;;2.00;2.00;;;;;26.95;38.99;102567.78;4939922;28;45246;-81
2023/10/05 11:01:53;;;;;;;;;1.67;1.33;;;;;26.99;39.12;102573.59;4939708;28;47215;-82
2023/10/05 11:04:25;;;;;;;;;3.33;2.00;;;;;26.99;38.54;102575.44;4940713;28;45214;-82
2023/10/05 11:07:17;;;;;;;;;2.00;2.00;;;;;27.02;39.31;102586.63;4955496;28;45563;-82
2023/10/05 11:09:52;;;;;;;;;3.33;2.00;;;;;27.03;39.23;102582.13;4958420;28;45351;-81
2023/10/05 11:12:22;;;;;;;;;3.00;3.00;;;;;27.03;39.33;102590.97;4958025;28;47184;-81
2023/10/05 11:14:51;;;;;;;;;2.00;2.00;;;;;27.04;39.26;102586.44;4958737;28;45192;-80
2023/10/05 11:17:30;;;;;;;;;1.33;1.33;;;;;27.01;38.69;102590.28;4958893;28;45330;-81
2023/10/05 11:19:58;;;;;;;;;1.00;1.00;;;;;27.04;38.90;102584.59;4959140;28;45314;-82
2023/10/05 11:22:23;;;;;;;;;1.00;1.00;;;;;27.05;39.25;102577.44;4958586;28;46063;-82
2023/10/05 11:25:14;;;;;;;;;2.67;2.67;;;;;26.96;38.59;102568.59;4959610;28;45418;-81
2023/10/05 11:27:41;;;;;;;;;1.00;1.00;;;;;26.98;38.54;102563.94;4959473;28;45232;-81
2023/10/05 11:30:07;;;;;;;;;4.00;2.00;;;;;27.04;38.66;102568.59;4959596;28;45337;-81
2023/10/05 11:32:33;;;;;;;;;1.00;1.00;;;;;26.88;39.17;102537.41;4958960;28;45926;-81
2023/10/05 11:35:05;;;;;;;;;2.67;2.67;;;;;27.04;39.31;102560.56;4959339;28;45310;-81
2023/10/05 11:37:32;;;;;;;;;2.00;2.00;;;;;26.97;39.13;102554.25;4959080;28;45433;-81
2023/10/05 11:40:00;;;;;;;;;2.33;2.33;;;;;27.02;38.68;102567.09;4959334;28;45682;-81
2023/10/05 11:42:27;;;;;;;;;2.00;2.00;;;;;26.90;38.92;102548.78;4959060;28;46468;-82
2023/10/05 11:45:00;;;;;;;;;2.00;2.00;;;;;27.01;38.73;102557.44;4941655;28;45721;-82
2023/10/05 11:47:44;;;;;;;;;1.33;1.33;;;;;27.00;38.90;102558.41;4940046;28;45402;-82
2023/10/05 11:50:24;;;;;;;;;2.00;2.00;;;;;27.00;39.06;102556.59;4939461;28;45493;-82